WetterOnline ( https://www.wetteronline.de )

Wetter aktuell Malborn

Aktuelles Wetter: Deuselbach (483m)

6-stündlich | Neueste Meldungen
Ortszeit Temperatur Wetter
Mi, 21.08. 8:00 11.5° C wolkenlos
Mi, 21.08. 2:00 11.3° C wolkenlos
Di, 20.08. 20:00 15.0° C Sprühregen
Di, 20.08. 14:00 17.0° C bedeckt
Di, 20.08. 8:00 10.9° C bedeckt
Di, 20.08. 2:00 12.2° C wolkenlos
Mo, 19.08. 20:00 17.8° C leicht bewölkt
Mo, 19.08. 14:00 20.6° C wolkig
Ortszeit Temperatur Wetter
Mi, 21.08. 13:00 19.1° C fast wolkenlos
Mi, 21.08. 12:50 19.1° C fast wolkenlos
Mi, 21.08. 12:40 18.8° C fast wolkenlos
Mi, 21.08. 12:30 18.2° C leicht bewölkt
Mi, 21.08. 12:20 18.2° C leicht bewölkt
Mi, 21.08. 12:10 18.5° C leicht bewölkt
Mi, 21.08. 12:00 17.8° C leicht bewölkt
Mi, 21.08. 11:30 17.5° C fast wolkenlos
Mi, 21.08. 11:00 17.8° C leicht bewölkt
Mi, 21.08. 10:30 17.5° C fast wolkenlos
Mi, 21.08. 10:00 17.0° C wolkenlos
Ortszeit Relative Feuchte Sichtweite
Mi, 21.08. 8:00 85% 35 km
Mi, 21.08. 2:00 88% 45 km
Di, 20.08. 20:00 74% 45 km
Di, 20.08. 14:00 57% 45 km
Di, 20.08. 8:00 89% 40 km
Di, 20.08. 2:00 80% 55 km
Mo, 19.08. 20:00 59% >70 km
Mo, 19.08. 14:00 52% 30 km
Ortszeit Relative Feuchte Sichtweite
Mi, 21.08. 13:00 47% 55 km
Mi, 21.08. 12:50 47% -
Mi, 21.08. 12:40 47% -
Mi, 21.08. 12:30 51% 55 km
Mi, 21.08. 12:20 51% -
Mi, 21.08. 12:10 49% -
Mi, 21.08. 12:00 55% 55 km
Mi, 21.08. 11:30 54% 55 km
Mi, 21.08. 11:00 56% 40 km
Mi, 21.08. 10:30 58% 55 km
Mi, 21.08. 10:00 65% 65 km
Ortszeit Niederschlagsmenge Niederschlagsart
Mi, 21.08. 8:00 0.1 l/m2 in 12 Std. -
Mi, 21.08. 2:00 0.1 l/m2 in 6 Std. Regen
Di, 20.08. 20:00 0.1 l/m2 in 12 Std. Regen
Di, 20.08. 14:00 0.0 l/m2 in 6 Std. -
Di, 20.08. 8:00 0.0 l/m2 in 12 Std. -
Di, 20.08. 2:00 0.0 l/m2 in 6 Std. -
Mo, 19.08. 20:00 0.0 l/m2 in 12 Std. -
Mo, 19.08. 14:00 0.0 l/m2 in 6 Std. -
Ortszeit Niederschlagsmenge Niederschlagsart
Mi, 21.08. 13:00 0.0 l/m2 in 1 Std. -
Mi, 21.08. 12:50 keine Meldung -
Mi, 21.08. 12:40 keine Meldung -
Mi, 21.08. 12:30 0.0 l/m2 in 1 Std. -
Mi, 21.08. 12:20 keine Meldung -
Mi, 21.08. 12:10 keine Meldung -
Mi, 21.08. 12:00 0.0 l/m2 in 1 Std. -
Mi, 21.08. 11:30 0.0 l/m2 in 1 Std. -
Mi, 21.08. 11:00 0.0 l/m2 in 1 Std. -
Mi, 21.08. 10:30 0.0 l/m2 in 1 Std. -
Mi, 21.08. 10:00 0.0 l/m2 in 1 Std. -
Ortszeit Stärke Spitze Richtung
km/h Bft. km/h Grad Sektor
Mi, 21.08. 8:00 4 1 11 100° O
Mi, 21.08. 2:00 6 1 28 140° SO
Di, 20.08. 20:00 15 3 31 300° NW
Di, 20.08. 14:00 11 2 14 310° NW
Di, 20.08. 8:00 4 1 7 160° S
Di, 20.08. 2:00 6 1 22 190° S
Mo, 19.08. 20:00 13 3 33 290° W
Mo, 19.08. 14:00 19 3 37 240° SW
Ortszeit Stärke Spitze Richtung
km/h Bft. km/h Grad Sektor
Mi, 21.08. 13:00 7 2 14 290° W
Mi, 21.08. 12:50 7 2 - 290° W
Mi, 21.08. 12:40 6 1 - 300° NW
Mi, 21.08. 12:30 6 1 15 330° NW
Mi, 21.08. 12:20 6 1 - 330° NW
Mi, 21.08. 12:10 7 2 - 360° N
Mi, 21.08. 12:00 4 1 11 30° NO
Mi, 21.08. 11:30 4 1 11 240° SW
Mi, 21.08. 11:00 11 2 18 90° O
Mi, 21.08. 10:30 13 3 17 70° O
Mi, 21.08. 10:00 7 2 11 80° O
Ortszeit Untergrenze Bedeckung Gattung
total tief tief mittel hoch
Mi, 21.08. 8:00 - 0/8 0/8 - - -
Mi, 21.08. 2:00 - 0/8 0/8 - - -
Di, 20.08. 20:00 1200 m 8/8 8/8 - - -
Di, 20.08. 14:00 4500 m 8/8 8/8 - - -
Di, 20.08. 8:00 5400 m 8/8 8/8 - - -
Di, 20.08. 2:00 9000 m 0/8 0/8 - - -
Mo, 19.08. 20:00 1500 m 5/8 3/8 - - -
Mo, 19.08. 14:00 1260 m 6/8 6/8 - - -
Ortszeit Bedeckungsgrad in Achtel und Wolkenuntergrenze
Mi, 21.08. 13:00 1(1500m)
Mi, 21.08. 12:50 1(1500m)
Mi, 21.08. 12:40 1(1500m)
Mi, 21.08. 12:30 2(1500m)
Mi, 21.08. 12:20 2(1500m)
Mi, 21.08. 12:10 3(1500m)
Mi, 21.08. 12:00 2(1440m)
Mi, 21.08. 11:30 1(1230m)
Mi, 21.08. 11:00 2(1230m)
Mi, 21.08. 10:30 1(1080m)
Mi, 21.08. 10:00 keine Wolken
Ortszeit Luftdruck NN (hPa) Tendenz (hPa in 3 Std.)
Mi, 21.08. 8:00 1029 + 0,5
Mi, 21.08. 2:00 1028 + 0,4
Di, 20.08. 20:00 1026 + 1,0
Di, 20.08. 14:00 1023 + 0,2
Di, 20.08. 8:00 1023 + 0,8
Di, 20.08. 2:00 1022 + 0,9
Mo, 19.08. 20:00 1019 + 0,5
Mo, 19.08. 14:00 1017 + 0,8
Ortszeit Luftdruck NN (hPa) Tendenz (hPa in 3 Std.)
Mi, 21.08. 13:00 1027 - 0,3
Mi, 21.08. 12:50 1027 keine Meldung
Mi, 21.08. 12:40 1027 keine Meldung
Mi, 21.08. 12:30 1028 - 0,1
Mi, 21.08. 12:20 1028 keine Meldung
Mi, 21.08. 12:10 1028 keine Meldung
Mi, 21.08. 12:00 1028 0,0
Mi, 21.08. 11:30 1028 + 0,2
Mi, 21.08. 11:00 1028 + 0,2
Mi, 21.08. 10:30 1028 + 0,3
Mi, 21.08. 10:00 1028 + 0,4
Ortszeit Schneehöhe (cm)
Mi, 21.08. 8:00 -
Mi, 21.08. 2:00 -
Di, 20.08. 20:00 -
Di, 20.08. 14:00 -
Di, 20.08. 8:00 -
Di, 20.08. 2:00 -
Mo, 19.08. 20:00 -
Mo, 19.08. 14:00 -
Ortszeit Schneehöhe (cm)
Mi, 21.08. 13:00 -
Mi, 21.08. 12:50 -
Mi, 21.08. 12:40 -
Mi, 21.08. 12:30 -
Mi, 21.08. 12:20 -
Mi, 21.08. 12:10 -
Mi, 21.08. 12:00 -
Mi, 21.08. 11:30 -
Mi, 21.08. 11:00 -
Mi, 21.08. 10:30 -
Mi, 21.08. 10:00 -
Link zu dieser Seite / Seite empfehlen

Das Wetter in ...